There are multiple Weather-warnings   Click here for more information




My webcam more information My webcam


Meteosat more information Meteosat


avis per Pluja more information rain snow radar


Visita la nostra xarxa de llocs de meteo:

Template documentation
and downloads

And another site



Nearby METAR Reports

   
LERS - Reus
Actualitzacio: 21-07-2018 03:30
Nuvols dispersos  
Nuvols dispersos  
   Vent: varia 3.7 km/h
Vent: varia 3.7 km/h
Temperatura: 22°C
Punt de rosada: 18°C
Humitat: 78%
Barometre: 1013 hPa
Nuvols: Nuvols dispersos
Visibilitat: More than 10 km
Cloud details: Nuvols dispersos 2100 ft
LERS 210130Z AUTO VRB02KT 9999 FEW021/// 22/18 Q1013
LEDA - Lleida
Actualitzacio: 21-07-2018 03:30
Clar  
Clar  
   Vent: South 13 km/h
Vent: South 13 km/h
Temperatura: 17°C
Punt de rosada: 16°C
Humitat: 94%
Barometre: 1014 hPa
Nuvols: Clar
Visibilitat: More than 10 km
Cloud details: Clar
LEDA 210130Z AUTO 19007KT 9999 NCD 17/16 Q1014
LEGE - Girona
Actualitzacio: 21-07-2018 03:30
Nuvols dispersos  
Nuvols dispersos  
   Vent: varia 3.7 km/h
Vent: varia 3.7 km/h
Temperatura: 21°C
Punt de rosada: 19°C
Humitat: 88%
Barometre: 1013 hPa
Nuvols: Nuvols dispersos
Visibilitat: More than 10 km
Cloud details: Nuvols dispersos 1800 ft
LEGE 210130Z VRB02KT 9999 FEW018 21/19 Q1013
LEMH - Mahon
Actualitzacio: 21-07-2018 03:30
Clar  
Clar  
   Vent: NNW 5.6 km/h
Vent: NNW 5.6 km/h
Temperatura: 24°C
Punt de rosada: 22°C
Humitat: 89%
Barometre: 1010 hPa
Visibilitat: More than 10 km
Cloud details: Clar
LEMH 210130Z AUTO 33003KT 270V030 CAVOK 24/22 Q1010
LFMK - Carcassonne
Actualitzacio: 21-07-2018 03:30
Parcialment ennuvolat  
Parcialment ennuvolat  
   Vent: West 22.2 km/h
Vent: West 22.2 km/h
Temperatura: 17°C
Punt de rosada: 15°C
Humitat: 88%
Barometre: 1016 hPa
Nuvols: Parcialment ennuvolat
Visibilitat: More than 10 km
Cloud details: Nuvols dispersos 2000 ft,
Parcialment ennuvolat 2800 ft,
Parcialment ennuvolat 5400 ft,
tempesta
LFMK 210130Z AUTO 27012KT 240V300 9999 FEW020/// BKN028/// BKN054/// ///CB 17/15 Q1016
 

Guio original per  Saratoga-weather.org Adaptat per a la plantilla per  Weerstation Leuven

Trobareu la nostra informacio del temps tambe a:

European Weather Network

WeatherCloud

Weather Underground

Meteoclimatic

Equip utilitzat:

Weather-program
Weather Display

Weather-server
RaspberryPI 2

Proveidor

Weather Display

RaspberryPI 2